Time;durP1;ratioP1;P1;durP2;ratioP2;P2;SDS_P1;SDS_P2;PMS_P1;PMS_P2;Temp;Humidity;BMP_temperature;BMP_pressure;BME280_temperature;BME280_humidity;BME280_pressure;Samples;Min_cycle;Max_cycle;Signal;HPM_P1;HPM_P2
2024/01/07 00:01:02;;;;;;;13.50;10.35;;;0.80;99.90;;;;;;4984594;28;20125;-34
2024/01/07 00:03:28;;;;;;;15.90;11.18;;;0.80;99.90;;;;;;4980547;28;20061;-35
2024/01/07 00:05:53;;;;;;;16.25;11.73;;;0.80;99.90;;;;;;4980911;28;20157;-34
2024/01/07 00:08:21;;;;;;;14.65;11.50;;;0.80;99.90;;;;;;4982663;28;20050;-35
2024/01/07 00:10:46;;;;;;;14.48;10.77;;;0.80;99.90;;;;;;4986819;28;20058;-40
2024/01/07 00:13:12;;;;;;;16.92;11.43;;;0.80;99.90;;;;;;4984223;28;20074;-34
2024/01/07 00:15:37;;;;;;;16.85;13.07;;;0.80;99.90;;;;;;4987942;28;20076;-36
2024/01/07 00:18:03;;;;;;;15.60;11.98;;;0.80;99.90;;;;;;4985352;28;20054;-35
2024/01/07 00:20:29;;;;;;;13.98;12.23;;;0.80;99.90;;;;;;4981108;28;20054;-35
2024/01/07 00:22:56;;;;;;;16.73;13.70;;;0.80;99.90;;;;;;4984503;28;20108;-34
2024/01/07 00:25:22;;;;;;;16.05;13.00;;;0.80;99.90;;;;;;4981374;28;20057;-34
2024/01/07 00:27:47;;;;;;;14.95;11.35;;;0.80;99.90;;;;;;4963799;28;20408;-34
2024/01/07 00:30:13;;;;;;;15.73;12.75;;;0.80;99.90;;;;;;4980832;28;20412;-33
2024/01/07 00:32:39;;;;;;;14.60;12.57;;;0.80;99.90;;;;;;4977257;28;20487;-35
2024/01/07 00:35:05;;;;;;;15.52;11.95;;;0.80;99.90;;;;;;4986739;28;20119;-37
2024/01/07 00:37:31;;;;;;;16.00;13.85;;;0.80;99.90;;;;;;4984088;28;20057;-34
2024/01/07 00:39:57;;;;;;;15.27;12.50;;;0.80;99.90;;;;;;4976874;28;20067;-35
2024/01/07 00:42:22;;;;;;;15.00;13.30;;;0.80;99.90;;;;;;4980952;28;20057;-35
2024/01/07 00:44:48;;;;;;;17.88;15.98;;;0.80;99.90;;;;;;4965055;28;20051;-36
2024/01/07 00:47:14;;;;;;;19.55;17.75;;;0.80;99.90;;;;;;4983006;28;20133;-34
2024/01/07 00:49:40;;;;;;;16.98;15.27;;;0.80;99.90;;;;;;4980545;28;20058;-35
2024/01/07 00:52:06;;;;;;;17.05;14.55;;;0.80;99.90;;;;;;4986104;28;20468;-34
2024/01/07 00:54:32;;;;;;;15.15;13.40;;;0.80;99.90;;;;;;4944185;28;20125;-34
2024/01/07 00:56:57;;;;;;;16.05;14.35;;;0.80;99.90;;;;;;4975378;28;20050;-35
2024/01/07 00:59:23;;;;;;;15.88;14.18;;;0.80;99.90;;;;;;4985512;28;20396;-35
2024/01/07 01:01:49;;;;;;;15.88;13.85;;;0.80;99.90;;;;;;4976656;28;20050;-35
2024/01/07 01:04:15;;;;;;;14.45;12.80;;;0.80;99.90;;;;;;4982823;28;20258;-35
2024/01/07 01:06:40;;;;;;;18.25;16.48;;;0.80;99.90;;;;;;4979543;28;20042;-35
2024/01/07 01:09:06;;;;;;;17.23;14.80;;;0.80;99.90;;;;;;4980979;28;20113;-35
2024/01/07 01:11:32;;;;;;;15.70;13.50;;;0.80;99.90;;;;;;4985590;28;20062;-35
2024/01/07 01:13:57;;;;;;;14.93;13.23;;;0.80;99.90;;;;;;4979827;28;20335;-35
2024/01/07 01:16:23;;;;;;;18.58;16.70;;;0.80;99.90;;;;;;4980179;28;20054;-35
2024/01/07 01:18:50;;;;;;;16.75;15.02;;;0.80;99.90;;;;;;4982220;28;20141;-35
2024/01/07 01:21:15;;;;;;;19.90;17.88;;;0.80;99.90;;;;;;4965699;28;20061;-34
2024/01/07 01:23:42;;;;;;;17.13;15.40;;;0.80;99.90;;;;;;4977913;28;20058;-35
2024/01/07 01:26:08;;;;;;;19.23;17.42;;;0.80;99.90;;;;;;4983505;28;20540;-35
2024/01/07 01:28:33;;;;;;;19.20;17.35;;;0.80;99.90;;;;;;4977928;28;20423;-35
2024/01/07 01:30:59;;;;;;;20.15;18.15;;;0.80;99.90;;;;;;4978629;28;20109;-35
2024/01/07 01:33:25;;;;;;;21.77;19.85;;;0.80;99.90;;;;;;4950564;28;20042;-34
2024/01/07 01:35:51;;;;;;;19.92;18.17;;;0.80;99.90;;;;;;4955845;28;20464;-35
2024/01/07 01:38:17;;;;;;;18.23;16.40;;;0.80;99.90;;;;;;4984685;28;20061;-35
2024/01/07 01:40:42;;;;;;;19.63;17.83;;;0.80;99.90;;;;;;4984012;28;20072;-35
2024/01/07 01:43:08;;;;;;;22.23;20.27;;;0.80;99.90;;;;;;4979483;28;20407;-35
2024/01/07 01:45:34;;;;;;;32.20;29.90;;;0.80;99.90;;;;;;4981283;28;20058;-35
2024/01/07 01:48:00;;;;;;;25.67;23.73;;;0.80;99.90;;;;;;4982583;28;20050;-35
2024/01/07 01:50:26;;;;;;;35.85;33.47;;;0.70;99.90;;;;;;4977748;28;20053;-35
2024/01/07 01:52:52;;;;;;;28.85;26.65;;;0.70;99.90;;;;;;4983781;28;20050;-35
2024/01/07 01:55:19;;;;;;;23.98;22.05;;;0.80;99.90;;;;;;4981873;28;20519;-35
2024/01/07 01:57:46;;;;;;;34.75;32.25;;;0.80;99.90;;;;;;4981427;28;20053;-35
2024/01/07 02:00:13;;;;;;;30.08;27.83;;;0.80;99.90;;;;;;4985306;28;21268;-40
2024/01/07 02:02:38;;;;;;;23.27;21.35;;;0.80;99.90;;;;;;4963855;28;20124;-36
2024/01/07 02:05:05;;;;;;;34.30;31.98;;;0.80;99.90;;;;;;4979007;28;20479;-35
2024/01/07 02:07:31;;;;;;;30.20;27.90;;;0.80;99.90;;;;;;4978466;28;20133;-34
2024/01/07 02:09:57;;;;;;;31.63;29.27;;;0.80;99.90;;;;;;4979317;28;20100;-36
2024/01/07 02:12:23;;;;;;;24.75;22.73;;;0.80;99.90;;;;;;4981989;28;20125;-36
2024/01/07 02:14:48;;;;;;;29.30;27.23;;;0.80;99.90;;;;;;4965895;28;20112;-35
2024/01/07 02:17:15;;;;;;;25.63;23.58;;;0.80;99.90;;;;;;4975324;28;20061;-35
2024/01/07 02:19:41;;;;;;;29.27;26.98;;;0.80;99.90;;;;;;4983112;28;20583;-34
2024/01/07 02:22:06;;;;;;;34.00;31.70;;;0.80;99.90;;;;;;4985903;28;20109;-36
2024/01/07 02:24:32;;;;;;;28.52;26.38;;;0.80;99.90;;;;;;4978985;28;20062;-36
2024/01/07 02:27:02;;;;;;;27.25;25.15;;;0.80;99.90;;;;;;4981653;28;20158;-35
2024/01/07 02:29:28;;;;;;;25.15;23.15;;;0.80;99.90;;;;;;4982150;28;20053;-35
2024/01/07 02:31:53;;;;;;;22.45;20.27;;;0.80;99.90;;;;;;4981783;28;20078;-35
2024/01/07 02:34:19;;;;;;;27.38;25.23;;;0.80;99.90;;;;;;4982040;28;20496;-35
2024/01/07 02:36:45;;;;;;;20.85;19.05;;;0.80;99.90;;;;;;4983755;28;20046;-35
2024/01/07 02:39:11;;;;;;;26.77;24.67;;;0.80;99.90;;;;;;4985303;28;20050;-35
2024/01/07 02:41:36;;;;;;;25.33;23.33;;;0.80;99.90;;;;;;4982961;28;20129;-35
2024/01/07 02:44:02;;;;;;;34.10;31.75;;;0.80;99.90;;;;;;4962906;28;20456;-34
2024/01/07 02:46:28;;;;;;;33.78;31.20;;;0.80;99.90;;;;;;4980729;28;20077;-35
2024/01/07 02:48:53;;;;;;;29.65;27.50;;;0.80;99.90;;;;;;4967528;28;20177;-35
2024/01/07 02:51:19;;;;;;;34.25;31.90;;;0.80;99.90;;;;;;4990069;28;20062;-35
2024/01/07 02:53:45;;;;;;;38.90;36.30;;;0.80;99.90;;;;;;4982540;28;20456;-35
2024/01/07 02:56:10;;;;;;;32.28;30.00;;;0.70;99.90;;;;;;4982136;28;20062;-35
2024/01/07 02:58:36;;;;;;;41.15;38.40;;;0.80;99.90;;;;;;4988275;28;20226;-35
2024/01/07 03:01:03;;;;;;;36.45;33.95;;;0.80;99.90;;;;;;4984921;28;20166;-35
2024/01/07 03:03:29;;;;;;;40.90;38.30;;;0.70;99.90;;;;;;4983082;28;20484;-35
2024/01/07 03:05:55;;;;;;;48.42;45.25;;;0.70;99.90;;;;;;4983545;28;20105;-35
2024/01/07 03:08:20;;;;;;;56.25;52.85;;;0.70;99.90;;;;;;4982449;28;20492;-35
2024/01/07 03:10:46;;;;;;;48.85;45.97;;;0.70;99.90;;;;;;4982550;28;20109;-35
2024/01/07 03:13:12;;;;;;;46.72;43.85;;;0.70;99.90;;;;;;4984701;28;20429;-35
2024/01/07 03:15:38;;;;;;;51.42;48.08;;;0.70;99.90;;;;;;4983719;28;20050;-35
2024/01/07 03:18:03;;;;;;;50.80;47.70;;;0.70;99.90;;;;;;4982637;28;20566;-35
2024/01/07 03:20:29;;;;;;;60.97;57.55;;;0.70;99.90;;;;;;4985237;28;20062;-35
2024/01/07 03:22:55;;;;;;;72.22;68.15;;;0.70;99.90;;;;;;4971030;28;20105;-36
2024/01/07 03:25:21;;;;;;;60.53;56.92;;;0.70;99.90;;;;;;4988921;28;20464;-36
2024/01/07 03:27:46;;;;;;;53.80;50.58;;;0.70;99.90;;;;;;4990431;28;20507;-38
2024/01/07 03:30:12;;;;;;;56.10;52.67;;;0.70;99.90;;;;;;4988002;28;20062;-35
2024/01/07 03:32:38;;;;;;;61.42;57.97;;;0.70;99.90;;;;;;4993509;28;20096;-36
2024/01/07 03:35:04;;;;;;;51.67;48.63;;;0.70;99.90;;;;;;4989010;28;20133;-36
2024/01/07 03:37:29;;;;;;;48.20;45.33;;;0.70;99.90;;;;;;4989369;28;20078;-36
2024/01/07 03:39:55;;;;;;;42.90;40.20;;;0.70;99.90;;;;;;4989685;28;20135;-35
2024/01/07 03:42:21;;;;;;;57.53;54.17;;;0.70;99.90;;;;;;4988674;28;20058;-34
2024/01/07 03:44:47;;;;;;;53.70;50.65;;;0.70;99.90;;;;;;4987404;28;20150;-35
2024/01/07 03:47:12;;;;;;;61.22;57.78;;;0.70;99.90;;;;;;4987291;28;20043;-35
2024/01/07 03:49:38;;;;;;;53.00;50.05;;;0.70;99.90;;;;;;4990647;28;20042;-34
2024/01/07 03:52:06;;;;;;;62.22;58.78;;;0.70;99.90;;;;;;4970274;28;20058;-36
2024/01/07 03:54:32;;;;;;;74.50;70.40;;;0.70;99.90;;;;;;4987247;28;20050;-35
2024/01/07 03:56:57;;;;;;;70.60;66.75;;;0.70;99.90;;;;;;4986618;28;20061;-34
2024/01/07 03:59:24;;;;;;;43.70;41.03;;;0.70;99.90;;;;;;4988481;28;20049;-34
2024/01/07 04:01:52;;;;;;;59.63;56.30;;;0.70;99.90;;;;;;4987964;28;20622;-33
2024/01/07 04:04:18;;;;;;;54.75;51.60;;;0.70;99.90;;;;;;4986514;28;20108;-35
2024/01/07 04:06:44;;;;;;;46.47;43.33;;;0.70;99.90;;;;;;4986823;28;20546;-35
2024/01/07 04:09:10;;;;;;;48.88;45.90;;;0.70;99.90;;;;;;4986378;28;20058;-35
2024/01/07 04:11:42;;;;;;;41.97;39.33;;;0.70;99.90;;;;;;4952889;28;20065;-35
2024/01/07 04:14:09;;;;;;;48.60;45.53;;;0.70;99.90;;;;;;4969506;28;21408;-34
2024/01/07 04:16:35;;;;;;;62.03;58.55;;;0.70;99.90;;;;;;4987678;28;20146;-34
2024/01/07 04:19:01;;;;;;;57.10;53.95;;;0.70;99.90;;;;;;4985819;28;20509;-36
2024/01/07 04:21:27;;;;;;;57.95;54.70;;;0.70;99.90;;;;;;4989221;28;20140;-36
2024/01/07 04:23:53;;;;;;;63.03;59.65;;;0.70;99.90;;;;;;4967621;28;20464;-41
2024/01/07 04:26:19;;;;;;;61.03;57.58;;;0.70;99.90;;;;;;4986568;28;20058;-36
2024/01/07 04:28:44;;;;;;;67.80;63.97;;;0.60;99.90;;;;;;4985876;28;20100;-35
2024/01/07 04:31:10;;;;;;;63.13;59.72;;;0.60;99.90;;;;;;4987884;28;20073;-36
2024/01/07 04:33:36;;;;;;;63.97;60.30;;;0.60;99.90;;;;;;4988593;28;20216;-34
2024/01/07 04:36:03;;;;;;;59.92;56.72;;;0.60;99.90;;;;;;4985862;28;20057;-35
2024/01/07 04:38:29;;;;;;;77.13;73.15;;;0.60;99.90;;;;;;4986812;28;20054;-36
2024/01/07 04:40:54;;;;;;;70.93;67.07;;;0.60;99.90;;;;;;4965984;28;20050;-36
2024/01/07 04:43:20;;;;;;;66.65;63.08;;;0.60;99.90;;;;;;4977958;28;20129;-36
2024/01/07 04:45:46;;;;;;;89.75;85.22;;;0.60;99.90;;;;;;4970172;28;20054;-36
2024/01/07 04:48:13;;;;;;;71.80;67.85;;;0.60;99.90;;;;;;4990867;28;20146;-35
2024/01/07 04:50:43;;;;;;;68.80;65.28;;;0.60;99.90;;;;;;4977732;28;20073;-36
2024/01/07 04:53:09;;;;;;;86.03;81.57;;;0.60;99.90;;;;;;4987140;28;20129;-36
2024/01/07 04:55:36;;;;;;;62.45;59.00;;;0.60;99.90;;;;;;4985379;28;20465;-34
2024/01/07 04:58:04;;;;;;;83.82;79.55;;;0.60;99.90;;;;;;4986631;28;20478;-36
2024/01/07 05:00:29;;;;;;;85.60;81.28;;;0.60;99.90;;;;;;4988603;28;20496;-36
2024/01/07 05:02:55;;;;;;;66.07;62.42;;;0.50;99.90;;;;;;4970314;28;20042;-34
2024/01/07 05:05:22;;;;;;;70.10;66.43;;;0.50;99.90;;;;;;4986222;28;20050;-34
2024/01/07 05:07:48;;;;;;;71.35;67.53;;;0.50;99.90;;;;;;4987944;28;20439;-37
2024/01/07 05:10:13;;;;;;;77.78;73.78;;;0.50;99.90;;;;;;4989198;28;20065;-35
2024/01/07 05:12:39;;;;;;;82.40;78.32;;;0.50;99.90;;;;;;4988645;28;20133;-35
2024/01/07 05:15:06;;;;;;;83.45;79.20;;;0.50;99.90;;;;;;4983829;28;20065;-34
2024/01/07 05:17:32;;;;;;;81.60;77.50;;;0.50;99.90;;;;;;4991548;28;20046;-34
2024/01/07 05:19:57;;;;;;;84.45;80.10;;;0.50;99.90;;;;;;4986743;28;20053;-34
2024/01/07 05:22:24;;;;;;;116.68;110.93;;;0.40;99.90;;;;;;4971362;28;20068;-35
2024/01/07 05:24:50;;;;;;;152.35;145.45;;;0.40;99.90;;;;;;4985322;28;20058;-39
2024/01/07 05:27:15;;;;;;;81.88;77.75;;;0.40;99.90;;;;;;4989398;28;20058;-35
2024/01/07 05:29:45;;;;;;;88.50;84.13;;;0.40;99.90;;;;;;4984138;28;20053;-34
2024/01/07 05:32:11;;;;;;;99.30;94.22;;;0.40;99.90;;;;;;4953416;28;20051;-35
2024/01/07 05:34:37;;;;;;;131.55;125.32;;;0.40;99.90;;;;;;4967304;28;20102;-34
2024/01/07 05:37:03;;;;;;;151.27;144.40;;;0.30;99.90;;;;;;4972398;28;20147;-35
2024/01/07 05:39:28;;;;;;;125.63;119.55;;;0.30;99.90;;;;;;4961547;28;20061;-35
2024/01/07 05:41:54;;;;;;;146.73;140.02;;;0.30;99.90;;;;;;4978337;28;20058;-45
2024/01/07 05:44:20;;;;;;;157.90;150.73;;;0.30;99.90;;;;;;4987900;28;20066;-36
2024/01/07 05:46:45;;;;;;;143.07;136.48;;;0.30;99.90;;;;;;4986146;28;20526;-36
2024/01/07 05:49:12;;;;;;;163.32;155.65;;;0.30;99.90;;;;;;4982879;28;20062;-35
2024/01/07 05:51:41;;;;;;;154.35;147.43;;;0.20;99.90;;;;;;4989631;28;20580;-35
2024/01/07 05:54:06;;;;;;;136.63;130.30;;;0.30;99.90;;;;;;4982718;28;20099;-36
2024/01/07 05:56:32;;;;;;;121.30;115.60;;;0.20;99.90;;;;;;4987322;28;20039;-36
2024/01/07 05:58:58;;;;;;;131.63;125.45;;;0.30;99.90;;;;;;4983047;28;20141;-35
2024/01/07 06:01:23;;;;;;;133.60;127.25;;;0.30;99.90;;;;;;4987484;28;20050;-36
2024/01/07 06:03:49;;;;;;;141.95;135.50;;;0.30;99.90;;;;;;4991222;28;20050;-35
2024/01/07 06:06:15;;;;;;;152.48;145.52;;;0.30;99.90;;;;;;4985869;28;20058;-35
2024/01/07 06:08:43;;;;;;;166.35;158.77;;;0.30;99.90;;;;;;4986289;28;20132;-41
2024/01/07 06:11:11;;;;;;;125.00;119.15;;;0.30;99.90;;;;;;4986588;28;20197;-36
2024/01/07 06:13:37;;;;;;;117.35;111.80;;;0.30;99.90;;;;;;4986437;28;20576;-36
2024/01/07 06:16:03;;;;;;;161.38;154.07;;;0.30;99.90;;;;;;4985354;28;20056;-36
2024/01/07 06:18:29;;;;;;;116.65;111.40;;;0.20;99.90;;;;;;4986617;28;20145;-35
2024/01/07 06:20:55;;;;;;;161.10;154.18;;;0.20;99.90;;;;;;4970570;28;20153;-37
2024/01/07 06:23:20;;;;;;;120.75;115.10;;;0.20;99.90;;;;;;4965047;28;20565;-36
2024/01/07 06:25:46;;;;;;;107.95;103.07;;;0.20;99.90;;;;;;4968027;28;20046;-35
2024/01/07 06:28:12;;;;;;;104.93;100.22;;;0.20;99.90;;;;;;4965510;28;20908;-35
2024/01/07 06:30:37;;;;;;;127.20;121.50;;;0.20;99.90;;;;;;4963922;28;20082;-35
2024/01/07 06:33:05;;;;;;;72.88;68.95;;;0.20;99.90;;;;;;4965486;28;20053;-35
2024/01/07 06:35:30;;;;;;;88.65;84.30;;;0.20;99.90;;;;;;4965479;28;20496;-35
2024/01/07 06:37:56;;;;;;;97.97;93.15;;;0.20;99.90;;;;;;4963415;28;20109;-35
2024/01/07 06:40:22;;;;;;;78.47;74.75;;;0.20;99.90;;;;;;4964935;28;20416;-35
2024/01/07 06:42:48;;;;;;;74.47;70.82;;;0.20;99.90;;;;;;4968777;28;20051;-36
2024/01/07 06:45:16;;;;;;;67.45;64.00;;;0.20;99.90;;;;;;4964704;28;20055;-36
2024/01/07 06:47:42;;;;;;;78.72;74.85;;;0.10;99.90;;;;;;4965222;28;20066;-35
2024/01/07 06:50:09;;;;;;;58.10;55.13;;;0.00;99.90;;;;;;4966741;28;20047;-35
2024/01/07 06:52:35;;;;;;;64.22;61.15;;;0.00;99.90;;;;;;4948813;28;20500;-35
2024/01/07 06:55:01;;;;;;;61.58;58.47;;;-0.10;99.90;;;;;;4967958;28;20046;-36
2024/01/07 06:57:26;;;;;;;56.75;53.83;;;-0.10;99.90;;;;;;4949631;28;20051;-39
2024/01/07 06:59:52;;;;;;;53.45;50.75;;;-0.10;99.90;;;;;;4970381;28;20137;-50
2024/01/07 07:02:19;;;;;;;78.32;74.47;;;-0.10;99.90;;;;;;4970320;28;20467;-42
2024/01/07 07:04:45;;;;;;;77.40;73.72;;;-0.10;99.90;;;;;;4963291;28;20058;-34
2024/01/07 07:07:11;;;;;;;56.88;54.00;;;-0.10;99.90;;;;;;4969981;28;20054;-35
2024/01/07 07:09:36;;;;;;;62.83;59.60;;;-0.20;99.90;;;;;;4967760;28;20091;-36
2024/01/07 07:12:02;;;;;;;60.60;57.38;;;-0.20;99.90;;;;;;4969983;28;20057;-36
2024/01/07 07:14:28;;;;;;;85.65;81.60;;;-0.20;99.90;;;;;;4968309;28;20066;-35
2024/01/07 07:16:54;;;;;;;76.82;73.25;;;-0.20;99.90;;;;;;4933747;28;20424;-35
2024/01/07 07:19:19;;;;;;;69.03;65.65;;;-0.20;99.90;;;;;;4970878;28;20054;-35
2024/01/07 07:21:45;;;;;;;72.47;68.97;;;-0.20;99.90;;;;;;4986668;28;20050;-35
2024/01/07 07:24:11;;;;;;;70.38;67.03;;;-0.20;99.90;;;;;;4984594;28;21318;-35
2024/01/07 07:26:40;;;;;;;61.90;58.83;;;-0.10;99.90;;;;;;4988275;28;20053;-35
2024/01/07 07:29:09;;;;;;;59.97;56.95;;;-0.10;99.90;;;;;;4986558;28;20631;-35
2024/01/07 07:31:35;;;;;;;59.20;56.40;;;-0.10;99.90;;;;;;4990193;28;20608;-35
2024/01/07 07:34:05;;;;;;;56.88;53.92;;;-0.10;99.90;;;;;;4987270;28;20050;-36
2024/01/07 07:36:31;;;;;;;66.30;63.13;;;-0.10;99.90;;;;;;4987037;28;20558;-35
2024/01/07 07:38:57;;;;;;;71.63;68.25;;;-0.10;99.90;;;;;;4981436;28;20054;-42
2024/01/07 07:41:23;;;;;;;69.53;66.15;;;-0.10;99.90;;;;;;4987394;28;20066;-37
2024/01/07 07:43:48;;;;;;;54.92;52.13;;;-0.10;99.90;;;;;;4997626;28;20074;-36
2024/01/07 07:46:15;;;;;;;63.08;59.80;;;0.00;99.90;;;;;;4984915;28;20110;-36
2024/01/07 07:48:41;;;;;;;52.92;50.08;;;0.00;99.90;;;;;;4989892;28;20097;-36
2024/01/07 07:51:07;;;;;;;51.05;48.63;;;0.00;99.90;;;;;;4988978;28;20058;-36
2024/01/07 07:53:33;;;;;;;55.35;52.63;;;0.00;99.90;;;;;;4971369;28;20455;-35
2024/01/07 07:55:59;;;;;;;49.55;47.13;;;0.00;99.90;;;;;;4992159;28;20168;-38
2024/01/07 07:58:24;;;;;;;45.80;43.50;;;0.00;99.90;;;;;;4986240;28;20432;-37
2024/01/07 08:00:50;;;;;;;43.80;41.55;;;0.10;99.90;;;;;;4984792;28;20046;-35
2024/01/07 08:03:16;;;;;;;40.88;38.88;;;0.10;99.90;;;;;;4987114;28;20064;-35
2024/01/07 08:05:41;;;;;;;42.83;40.45;;;0.10;99.90;;;;;;4987250;28;20541;-35
2024/01/07 08:08:07;;;;;;;36.55;34.75;;;0.10;99.90;;;;;;4988003;28;20097;-35
2024/01/07 08:10:35;;;;;;;41.70;39.45;;;0.10;99.90;;;;;;4980202;28;20052;-37
2024/01/07 08:13:01;;;;;;;45.55;43.30;;;0.10;99.90;;;;;;4986887;28;20054;-35
2024/01/07 08:15:29;;;;;;;40.97;38.88;;;0.10;99.90;;;;;;4986617;28;20049;-36
2024/01/07 08:17:55;;;;;;;40.17;37.90;;;0.10;99.90;;;;;;4985663;28;20057;-36
2024/01/07 08:20:21;;;;;;;35.70;33.80;;;0.20;99.90;;;;;;4974046;28;20055;-34
2024/01/07 08:22:46;;;;;;;42.10;39.90;;;0.20;99.90;;;;;;4963297;28;20404;-36
2024/01/07 08:25:13;;;;;;;36.22;34.38;;;0.20;99.90;;;;;;4981442;28;20042;-36
2024/01/07 08:27:41;;;;;;;41.15;39.10;;;0.20;99.90;;;;;;4986526;28;20484;-35
2024/01/07 08:30:07;;;;;;;40.25;38.05;;;0.20;99.90;;;;;;4990076;28;20050;-36
2024/01/07 08:32:33;;;;;;;36.65;34.85;;;0.20;99.90;;;;;;4968238;28;20054;-35
2024/01/07 08:34:58;;;;;;;37.65;35.78;;;0.20;99.90;;;;;;4967064;28;20491;-36
2024/01/07 08:37:24;;;;;;;36.00;34.25;;;0.30;99.90;;;;;;4984697;28;20137;-34
2024/01/07 08:39:50;;;;;;;36.58;34.65;;;0.30;99.90;;;;;;4987677;28;20058;-41
2024/01/07 08:42:15;;;;;;;36.17;34.25;;;0.30;99.90;;;;;;4966575;28;20046;-36
2024/01/07 08:44:41;;;;;;;34.35;32.60;;;0.30;99.90;;;;;;4984219;28;20047;-36
2024/01/07 08:47:07;;;;;;;34.78;33.08;;;0.20;99.90;;;;;;4983881;28;20550;-35
2024/01/07 08:49:33;;;;;;;29.77;28.25;;;0.20;99.90;;;;;;4985715;28;20151;-35
2024/01/07 08:51:59;;;;;;;32.00;30.20;;;0.20;99.90;;;;;;4967511;28;20054;-35
2024/01/07 08:54:25;;;;;;;32.30;30.67;;;0.10;99.90;;;;;;4983947;28;20108;-36
2024/01/07 08:56:51;;;;;;;32.92;31.23;;;0.10;99.90;;;;;;4971607;28;20420;-35
2024/01/07 08:59:17;;;;;;;30.88;29.05;;;0.10;99.90;;;;;;4973930;28;20069;-35
2024/01/07 09:01:42;;;;;;;34.83;33.13;;;0.10;99.90;;;;;;4985475;28;20115;-35
2024/01/07 09:04:08;;;;;;;40.08;38.10;;;0.00;99.90;;;;;;4966739;28;20061;-35
2024/01/07 09:06:34;;;;;;;40.10;38.10;;;0.00;99.90;;;;;;4987505;28;21024;-40
2024/01/07 09:09:00;;;;;;;37.13;35.22;;;0.00;99.90;;;;;;4988132;28;20104;-36
2024/01/07 09:11:25;;;;;;;38.55;36.70;;;0.00;99.90;;;;;;4986609;28;20050;-36
2024/01/07 09:13:51;;;;;;;41.95;39.88;;;-0.10;99.90;;;;;;4982929;28;20054;-35
2024/01/07 09:16:17;;;;;;;39.47;37.15;;;-0.10;99.90;;;;;;4990748;28;20078;-36
2024/01/07 09:18:46;;;;;;;41.13;38.83;;;-0.10;99.90;;;;;;4984812;28;20069;-36
2024/01/07 09:21:12;;;;;;;40.13;38.03;;;-0.10;99.90;;;;;;4985017;28;20512;-37
2024/01/07 09:23:37;;;;;;;49.63;46.90;;;-0.10;99.90;;;;;;4984242;28;20515;-35
2024/01/07 09:26:03;;;;;;;44.53;42.25;;;0.00;99.90;;;;;;4984145;28;20046;-36
2024/01/07 09:28:30;;;;;;;37.85;35.92;;;0.00;99.90;;;;;;4963243;28;20605;-35
2024/01/07 09:30:56;;;;;;;37.20;35.38;;;0.00;99.90;;;;;;4986511;28;20456;-35
2024/01/07 09:33:23;;;;;;;40.90;38.88;;;0.10;99.90;;;;;;4987418;28;20064;-37
2024/01/07 09:35:50;;;;;;;40.22;38.03;;;0.10;99.90;;;;;;4990289;28;20046;-40
2024/01/07 09:38:16;;;;;;;38.53;36.15;;;0.10;99.90;;;;;;4986667;28;20133;-36
2024/01/07 09:40:42;;;;;;;42.42;39.78;;;0.10;99.90;;;;;;4986511;28;20480;-35
2024/01/07 09:43:08;;;;;;;32.42;30.58;;;0.00;99.90;;;;;;4973253;28;20134;-35
2024/01/07 09:45:38;;;;;;;39.38;37.33;;;0.00;99.90;;;;;;4977230;28;20069;-35
2024/01/07 09:48:04;;;;;;;36.70;34.80;;;0.00;99.90;;;;;;4981280;28;20050;-35
2024/01/07 09:50:30;;;;;;;33.50;31.67;;;0.00;99.90;;;;;;4985447;28;20047;-35
2024/01/07 09:53:02;;;;;;;36.65;34.65;;;0.00;99.90;;;;;;4987356;28;20050;-35
2024/01/07 09:55:37;;;;;;;53.30;50.78;;;0.00;99.90;;;;;;4984389;28;20057;-35
2024/01/07 09:58:03;;;;;;;48.03;45.60;;;0.10;99.90;;;;;;4965764;28;20503;-35
2024/01/07 10:00:30;;;;;;;45.30;43.05;;;0.10;99.90;;;;;;4986856;28;20053;-35
2024/01/07 10:02:55;;;;;;;36.58;34.60;;;0.10;99.90;;;;;;4967145;28;20501;-35
2024/01/07 10:05:21;;;;;;;35.30;33.38;;;0.20;99.90;;;;;;4983693;28;20137;-35
2024/01/07 10:07:47;;;;;;;40.83;38.45;;;0.20;99.90;;;;;;4985071;28;20141;-35
2024/01/07 10:10:17;;;;;;;43.08;40.78;;;0.30;99.90;;;;;;4967366;28;20480;-35
2024/01/07 10:12:46;;;;;;;40.40;38.28;;;0.30;99.90;;;;;;4981665;28;20120;-34
2024/01/07 10:15:12;;;;;;;47.53;45.17;;;0.40;99.90;;;;;;4985410;28;20053;-33
2024/01/07 10:17:39;;;;;;;44.08;41.88;;;0.40;99.90;;;;;;4988620;28;20042;-36
2024/01/07 10:20:09;;;;;;;42.03;39.83;;;0.40;99.90;;;;;;4988630;28;20054;-47
2024/01/07 10:22:37;;;;;;;42.20;40.17;;;0.50;99.90;;;;;;4984612;28;20047;-35
2024/01/07 10:25:03;;;;;;;38.85;36.85;;;0.50;99.90;;;;;;4961603;28;20069;-34
2024/01/07 10:27:28;;;;;;;46.28;44.08;;;0.60;99.90;;;;;;4960434;28;20051;-35
2024/01/07 10:29:58;;;;;;;34.95;33.08;;;0.60;99.90;;;;;;4984561;28;20051;-35
2024/01/07 10:32:23;;;;;;;48.70;46.35;;;0.70;99.90;;;;;;4984587;28;20078;-35
2024/01/07 10:34:57;;;;;;;37.33;35.40;;;0.70;99.90;;;;;;4995795;28;20061;-35
2024/01/07 10:37:23;;;;;;;52.58;50.13;;;0.80;99.90;;;;;;4992955;28;20058;-35
2024/01/07 10:39:49;;;;;;;41.65;39.55;;;0.80;99.90;;;;;;4990679;28;20078;-35
2024/01/07 10:42:18;;;;;;;50.47;48.00;;;0.90;99.90;;;;;;4992191;28;20053;-35
2024/01/07 10:44:44;;;;;;;47.83;45.47;;;0.90;99.90;;;;;;4991693;28;20042;-36
2024/01/07 10:47:12;;;;;;;45.67;43.50;;;1.00;99.90;;;;;;4991248;28;20492;-35
2024/01/07 10:49:44;;;;;;;41.33;39.35;;;1.10;99.90;;;;;;4996085;28;20046;-36
2024/01/07 10:52:11;;;;;;;39.30;37.40;;;1.10;99.90;;;;;;4990907;28;20531;-35
2024/01/07 10:54:39;;;;;;;45.22;43.08;;;1.20;99.90;;;;;;4992443;28;20100;-35
2024/01/07 10:57:14;;;;;;;48.15;45.83;;;1.30;99.90;;;;;;4986223;28;20511;-45
2024/01/07 10:59:41;;;;;;;47.10;44.90;;;1.40;99.90;;;;;;4989399;28;20116;-35
2024/01/07 11:02:08;;;;;;;42.95;40.80;;;1.50;99.90;;;;;;4987904;28;20050;-36
2024/01/07 11:04:51;;;;;;;43.17;41.13;;;1.70;99.90;;;;;;4996064;28;20061;-45
2024/01/07 11:07:34;;;;;;;47.28;45.05;;;1.80;99.90;;;;;;4987007;28;20058;-34
2024/01/07 11:10:14;;;;;;;46.20;43.83;;;1.80;99.90;;;;;;4994824;28;20050;-36
2024/01/07 11:12:40;;;;;;;39.55;37.70;;;1.80;99.90;;;;;;4992607;28;20057;-35
2024/01/07 11:15:06;;;;;;;26.25;24.98;;;1.80;99.90;;;;;;4995501;28;20074;-36
2024/01/07 11:17:32;;;;;;;21.35;20.15;;;1.80;99.90;;;;;;4992520;28;20055;-35
2024/01/07 11:20:00;;;;;;;14.40;13.57;;;1.80;99.90;;;;;;4986257;28;20059;-37
2024/01/07 11:22:30;;;;;;;18.90;17.80;;;1.80;99.90;;;;;;4987293;28;20065;-47
2024/01/07 11:24:56;;;;;;;14.18;13.40;;;1.80;99.90;;;;;;4986562;28;20038;-36
2024/01/07 11:27:28;;;;;;;10.88;10.27;;;1.80;99.90;;;;;;4988193;28;20112;-37
2024/01/07 11:30:07;;;;;;;11.20;10.50;;;1.80;99.90;;;;;;4992521;28;20424;-34
2024/01/07 11:32:34;;;;;;;14.02;13.27;;;1.80;99.90;;;;;;4994055;28;20118;-38
2024/01/07 11:35:02;;;;;;;14.25;13.52;;;1.80;99.90;;;;;;4994435;28;20460;-35
2024/01/07 11:37:28;;;;;;;14.27;13.48;;;1.80;99.90;;;;;;4993504;28;20393;-35
2024/01/07 11:39:57;;;;;;;8.02;7.53;;;1.80;99.90;;;;;;4984317;28;20058;-35
2024/01/07 11:42:23;;;;;;;9.77;8.98;;;1.70;99.90;;;;;;4990113;28;20492;-35
2024/01/07 11:44:52;;;;;;;8.27;7.78;;;1.70;99.90;;;;;;4986800;28;20046;-35
2024/01/07 11:47:19;;;;;;;9.60;8.90;;;1.60;99.90;;;;;;4967321;28;20050;-35
2024/01/07 11:49:45;;;;;;;9.25;8.63;;;1.60;99.90;;;;;;4967661;28;20112;-35
2024/01/07 11:52:11;;;;;;;11.68;10.98;;;1.60;99.90;;;;;;4981625;28;20500;-36
2024/01/07 11:54:38;;;;;;;12.10;11.35;;;1.60;99.90;;;;;;4985469;28;20878;-36
2024/01/07 11:57:04;;;;;;;11.65;10.95;;;1.60;99.90;;;;;;4987399;28;20051;-35
2024/01/07 11:59:30;;;;;;;10.13;9.32;;;1.60;99.90;;;;;;4981896;28;20185;-35
2024/01/07 12:01:56;;;;;;;12.75;11.93;;;1.60;99.90;;;;;;4977403;28;20495;-36
2024/01/07 12:04:22;;;;;;;11.77;11.07;;;1.60;99.90;;;;;;4984642;28;20054;-36
2024/01/07 12:06:49;;;;;;;11.40;10.70;;;1.60;99.90;;;;;;4984922;28;20460;-35
2024/01/07 12:09:15;;;;;;;12.73;11.88;;;1.60;99.90;;;;;;4989374;28;20121;-44
2024/01/07 12:11:41;;;;;;;9.95;9.32;;;1.60;99.90;;;;;;4987803;28;20062;-34
2024/01/07 12:14:10;;;;;;;10.95;10.27;;;1.60;99.90;;;;;;4985087;28;20109;-36
2024/01/07 12:16:37;;;;;;;11.02;10.32;;;1.60;99.90;;;;;;4989006;28;20112;-46
2024/01/07 12:19:02;;;;;;;12.05;11.35;;;1.70;99.90;;;;;;4987938;28;20104;-36
2024/01/07 12:21:30;;;;;;;12.88;12.15;;;1.70;99.90;;;;;;4978896;28;20564;-36
2024/01/07 12:23:56;;;;;;;10.63;9.82;;;1.70;99.90;;;;;;4987619;28;20046;-35
2024/01/07 12:26:33;;;;;;;18.33;17.33;;;1.80;99.90;;;;;;4987138;28;20424;-36
2024/01/07 12:29:03;;;;;;;13.95;13.05;;;2.10;99.90;;;;;;4983253;28;20193;-36
2024/01/07 12:31:31;;;;;;;18.58;17.52;;;2.60;99.90;;;;;;4973998;28;20093;-37